createdAt,value
2023-05-22T00:04:27.724Z,29.5
2023-05-22T00:10:19.019Z,29.5
2023-05-22T00:15:54.201Z,29.5
2023-05-22T00:21:47.321Z,29.4
2023-05-22T00:27:38.919Z,29.4
2023-05-22T00:33:29.681Z,29.4
2023-05-22T00:39:22.042Z,29.4
2023-05-22T00:45:13.675Z,29.4
2023-05-22T00:51:04.715Z,29.3
2023-05-22T00:56:56.109Z,29.3
2023-05-22T01:02:48.448Z,29.3
2023-05-22T01:08:40.516Z,29.3
2023-05-22T01:14:32.493Z,29.3
2023-05-22T01:20:24.432Z,29.3
2023-05-22T01:26:16.036Z,29.2
2023-05-22T01:32:07.935Z,29.2
2023-05-22T01:37:59.506Z,29.2
2023-05-22T01:43:50.863Z,29.2
2023-05-22T01:49:43.494Z,29.2
2023-05-22T01:55:34.201Z,29.1
2023-05-22T02:01:25.771Z,29.1
2023-05-22T02:07:19.476Z,29.1
2023-05-22T02:13:11.135Z,29.1
2023-05-22T02:19:02.734Z,29.1
2023-05-22T02:24:39.578Z,29.1
2023-05-22T02:30:31.301Z,29.1
2023-05-22T02:36:22.639Z,29.3
2023-05-22T02:42:15.014Z,29.2
2023-05-22T02:48:07.092Z,29.1
2023-05-22T02:53:57.798Z,29.1
2023-05-22T02:59:49.779Z,29.1
2023-05-22T03:05:42.166Z,29.1
2023-05-22T03:11:33.547Z,29
2023-05-22T03:17:25.590Z,29
2023-05-22T03:23:17.529Z,28.9
2023-05-22T03:29:08.405Z,28.9
2023-05-22T03:35:00.999Z,28.9
2023-05-22T03:40:37.014Z,28.9
2023-05-22T03:52:09.374Z,28.8
2023-05-22T03:58:00.580Z,28.8
2023-05-22T04:03:51.316Z,28.8
2023-05-22T04:09:43.681Z,28.8
2023-05-22T04:15:35.784Z,28.8
2023-05-22T04:21:26.581Z,28.8
2023-05-22T04:27:18.427Z,28.7
2023-05-22T04:32:54.824Z,28.7
2023-05-22T04:38:30.562Z,28.7
2023-05-22T04:44:24.290Z,28.7
2023-05-22T04:50:16.625Z,28.6
2023-05-22T04:56:09.657Z,28.4
2023-05-22T05:02:13.083Z,28.3
2023-05-22T05:08:06.640Z,28.2
2023-05-22T05:13:57.621Z,28.1
2023-05-22T05:19:52.797Z,28
2023-05-22T05:25:29.248Z,27.9
2023-05-22T05:31:19.994Z,27.9
2023-05-22T05:42:47.855Z,28.1
2023-05-22T05:48:39.196Z,27.1
2023-05-22T05:54:30.967Z,27.2
2023-05-22T06:00:23.716Z,31.2
2023-05-22T06:06:17.192Z,32.4
2023-05-22T06:11:53.402Z,33.1
2023-05-22T06:17:46.541Z,32.8
2023-05-22T06:23:38.016Z,31.9
2023-05-22T06:29:29.861Z,31.7
2023-05-22T06:35:43.110Z,32.2
2023-05-22T06:41:34.138Z,33.6
2023-05-22T06:47:26.718Z,34.7
2023-05-22T06:53:19.180Z,35.2
2023-05-22T06:59:10.371Z,34.7
2023-05-22T07:05:03.567Z,34.4
2023-05-22T07:10:58.876Z,34.3
2023-05-22T07:16:52.336Z,34.4
2023-05-22T07:22:46.437Z,34.6
2023-05-22T07:28:38.439Z,36.1
2023-05-22T07:34:30.807Z,36.8
2023-05-22T07:40:24.469Z,37.4
2023-05-22T07:46:18.566Z,39.4
2023-05-22T07:52:10.099Z,39.8
2023-05-22T07:58:04.344Z,40.8
2023-05-22T08:03:57.619Z,40.8
2023-05-22T08:09:37.681Z,41.3
2023-05-22T08:15:59.983Z,42.7
2023-05-22T08:21:54.461Z,44.8
2023-05-22T08:27:31.069Z,45.4
2023-05-22T08:33:24.658Z,46.4
2023-05-22T08:39:17.452Z,48.7
2023-05-22T08:45:10.678Z,49.8
2023-05-22T08:51:03.525Z,50.7
2023-05-22T08:57:02.562Z,51.6
2023-05-22T09:02:56.122Z,51
2023-05-22T09:09:01.708Z,48.6
2023-05-22T09:14:55.271Z,46.4
2023-05-22T09:20:48.091Z,45.2
2023-05-22T09:26:54.252Z,44
2023-05-22T09:32:47.153Z,43.3
2023-05-22T09:38:39.954Z,42.9
2023-05-22T09:44:34.829Z,43.1
2023-05-22T09:50:28.145Z,44.3
2023-05-22T09:56:27.444Z,46.6
2023-05-22T10:02:30.456Z,47.3
2023-05-22T10:08:25.659Z,46.2
2023-05-22T10:14:21.289Z,45.9
2023-05-22T10:20:19.143Z,45.3
2023-05-22T10:26:12.636Z,44.9
2023-05-22T10:31:49.754Z,44.4
2023-05-22T10:37:54.296Z,43.5
2023-05-22T10:43:48.245Z,42.3
2023-05-22T10:49:27.459Z,41.4
2023-05-22T10:55:21.584Z,41
2023-05-22T11:01:15.813Z,41.1
2023-05-22T11:07:19.362Z,42.1
2023-05-22T11:13:15.245Z,42.6
2023-05-22T11:19:23.127Z,42.7
2023-05-22T11:25:16.560Z,43.3
2023-05-22T11:31:40.881Z,42.3
2023-05-22T11:37:18.882Z,41.3
2023-05-22T11:43:12.518Z,40.4
2023-05-22T11:49:08.329Z,38.5
2023-05-22T11:55:12.904Z,36.6
2023-05-22T12:01:08.352Z,35.3
2023-05-22T12:07:08.300Z,34.4
2023-05-22T12:13:04.680Z,33.5
2023-05-22T12:18:43.447Z,33.1
2023-05-22T12:24:39.139Z,32
2023-05-22T12:30:36.138Z,31.6
2023-05-22T12:36:30.804Z,31.6
2023-05-22T12:42:10.780Z,31.5
2023-05-22T12:48:06.263Z,31.4
2023-05-22T12:53:49.146Z,31.4
2023-05-22T12:59:44.616Z,31.3
2023-05-22T13:05:40.350Z,31.3
2023-05-22T13:11:19.857Z,31.2
2023-05-22T13:17:21.840Z,31.1
2023-05-22T13:23:24.788Z,31.1
2023-05-22T13:29:24.799Z,31.1
2023-05-22T13:35:08.533Z,31
2023-05-22T13:41:05.653Z,28.8
2023-05-22T13:47:00.736Z,29.1
2023-05-22T13:52:41.088Z,28.4
2023-05-22T13:58:34.711Z,33.4
2023-05-22T14:03:59.283Z,34.4
2023-05-22T14:09:37.118Z,35.1
2023-05-22T14:15:14.249Z,35.2
2023-05-22T14:20:51.370Z,35.5
2023-05-22T14:26:55.849Z,35.5
2023-05-22T14:32:48.890Z,36.3
2023-05-22T14:38:26.060Z,36.3
2023-05-22T14:43:47.268Z,35.1
2023-05-22T14:49:40.665Z,34.3
2023-05-22T14:55:45.919Z,33.7
2023-05-22T15:01:39.152Z,33.3
2023-05-22T15:07:42.848Z,32.7
2023-05-22T15:13:34.862Z,32.1
2023-05-22T15:19:28.277Z,31.8
2023-05-22T15:25:35.177Z,31.3
2023-05-22T15:31:28.054Z,30.9
2023-05-22T15:37:21.075Z,30.8
2023-05-22T15:43:26.058Z,30.8
2023-05-22T15:49:18.400Z,30.8
2023-05-22T15:55:13.377Z,30.8
2023-05-22T16:01:07.949Z,30.7
2023-05-22T16:06:45.706Z,30.7
2023-05-22T16:12:39.188Z,30.6
2023-05-22T16:18:36.848Z,30.3
2023-05-22T16:24:42.265Z,29.9
2023-05-22T16:30:37.815Z,29.6
2023-05-22T16:36:32.178Z,29.1
2023-05-22T16:42:10.231Z,28.6
2023-05-22T16:48:03.393Z,28.1
2023-05-22T16:53:56.154Z,27.6
2023-05-22T16:59:48.249Z,27.3
2023-05-22T17:05:42.592Z,26.9
2023-05-22T17:11:20.187Z,26.8
2023-05-22T17:17:12.349Z,26.6
2023-05-22T17:23:07.764Z,26.5
2023-05-22T17:28:57.733Z,26.4
2023-05-22T17:34:34.915Z,26.3
2023-05-22T17:40:40.327Z,26.1
2023-05-22T17:46:36.014Z,25.9
2023-05-22T17:52:28.058Z,25.9
2023-05-22T17:58:06.789Z,25.7
2023-05-22T18:03:29.382Z,25.6
2023-05-22T18:09:24.756Z,25.5
2023-05-22T18:15:32.911Z,25.4
2023-05-22T18:21:25.824Z,25.3
2023-05-22T18:32:39.525Z,25.2
2023-05-22T18:38:33.234Z,25.1
2023-05-22T18:44:25.238Z,25.1
2023-05-22T18:50:18.655Z,25
2023-05-22T18:56:11.079Z,24.9
2023-05-22T19:02:03.825Z,24.9
2023-05-22T19:07:11.256Z,24.9
2023-05-22T19:12:36.745Z,24.8
2023-05-22T19:28:44.906Z,24.7
2023-05-22T19:34:23.072Z,24.6
2023-05-22T19:40:15.909Z,24.5
2023-05-22T19:46:09.100Z,24.6
2023-05-22T19:51:46.878Z,24.7
2023-05-22T19:57:39.417Z,25
2023-05-22T20:03:33.667Z,25.4
2023-05-22T20:08:55.041Z,25.9
2023-05-22T20:14:32.201Z,26.4
2023-05-22T20:20:10.427Z,26.9
2023-05-22T20:26:03.010Z,27.2
2023-05-22T20:31:55.811Z,27.4
2023-05-22T20:37:49.101Z,27.6
2023-05-22T20:43:41.760Z,27.8
2023-05-22T20:49:34.423Z,27.9
2023-05-22T20:55:11.257Z,27.9
2023-05-22T21:01:02.960Z,27.9
2023-05-22T21:06:56.437Z,28
2023-05-22T21:12:50.807Z,28
2023-05-22T21:18:43.174Z,28
2023-05-22T21:24:36.397Z,28
2023-05-22T21:30:28.997Z,28.1
2023-05-22T21:36:22.327Z,28
2023-05-22T21:48:05.006Z,28.1
2023-05-22T21:53:58.339Z,28
2023-05-22T21:59:51.143Z,28
2023-05-22T22:05:44.741Z,28
2023-05-22T22:11:37.144Z,28
2023-05-22T22:17:29.878Z,28
2023-05-22T22:23:36.003Z,28
2023-05-22T22:29:27.760Z,27.9
2023-05-22T22:35:20.747Z,27.9
2023-05-22T22:41:16.063Z,27.9
2023-05-22T22:46:53.975Z,27.9
2023-05-22T22:52:31.432Z,27.9
2023-05-22T22:58:25.358Z,27.9
2023-05-22T23:04:17.186Z,27.9
2023-05-22T23:10:11.011Z,27.9
2023-05-22T23:16:03.873Z,27.9
2023-05-22T23:27:05.499Z,27.9
2023-05-22T23:49:47.379Z,27.8
2023-05-22T23:55:38.851Z,27.8
